Time;durP1;ratioP1;P1;durP2;ratioP2;P2;SDS_P1;SDS_P2;PMS_P1;PMS_P2;Temp;Humidity;BMP_temperature;BMP_pressure;BME280_temperature;BME280_humidity;BME280_pressure;Samples;Min_cycle;Max_cycle;Signal;HPM_P1;HPM_P2
2022/06/24 00:00:21;;;;;;;11.17;7.63;;;;;;;;;;4981540;28;21277;-72
2022/06/24 00:02:48;;;;;;;10.23;7.97;;;;;;;;;;4963245;28;20765;-72
2022/06/24 00:05:15;;;;;;;13.13;8.70;;;;;;;;;;4871565;28;3798609;-73
2022/06/24 00:07:48;;;;;;;12.07;9.03;;;;;;;;;;4985068;28;20223;-72
2022/06/24 00:10:33;;;;;;;11.93;8.87;;;;;;;;;;4944503;28;20232;-73
2022/06/24 00:12:59;;;;;;;13.13;8.37;;;;;;;;;;5004656;28;20223;-72
2022/06/24 00:15:26;;;;;;;14.43;8.53;;;;;;;;;;4994684;28;20231;-73
2022/06/24 00:17:53;;;;;;;12.23;8.73;;;;;;;;;;5003514;28;20219;-73
2022/06/24 00:20:20;;;;;;;11.13;8.33;;;;;;;;;;4875495;28;3692460;-73
2022/06/24 00:22:50;;;;;;;10.70;8.33;;;;;;;;;;5002425;28;20224;-73
2022/06/24 00:25:21;;;;;;;13.60;8.93;;;;;;;;;;4725556;28;3701592;-72
2022/06/24 00:28:07;;;;;;;15.60;10.00;;;;;;;;;;4964192;28;20465;-72
2022/06/24 00:30:40;;;;;;;18.67;12.80;;;;;;;;;;4979805;28;20244;-72
2022/06/24 00:33:25;;;;;;;16.77;11.23;;;;;;;;;;4970944;28;20285;-74
2022/06/24 00:35:52;;;;;;;21.30;12.73;;;;;;;;;;5005082;28;20230;-72
2022/06/24 00:38:22;;;;;;;21.07;14.07;;;;;;;;;;4949004;28;20705;-72
2022/06/24 00:41:07;;;;;;;19.43;12.67;;;;;;;;;;5000078;28;20677;-72
2022/06/24 00:43:34;;;;;;;43.40;16.57;;;;;;;;;;4991368;28;20227;-72
2022/06/24 00:46:06;;;;;;;20.87;12.80;;;;;;;;;;4968704;28;20561;-72
2022/06/24 00:48:34;;;;;;;30.30;17.20;;;;;;;;;;4983943;28;20305;-72
2022/06/24 00:51:00;;;;;;;24.37;14.33;;;;;;;;;;4835143;28;3400040;-72
2022/06/24 00:53:27;;;;;;;18.83;13.37;;;;;;;;;;5000422;28;20233;-72
2022/06/24 00:55:54;;;;;;;18.80;13.60;;;;;;;;;;4984579;28;20948;-73
2022/06/24 00:58:20;;;;;;;20.20;13.47;;;;;;;;;;4885482;28;3397235;-72
2022/06/24 01:00:47;;;;;;;21.97;13.20;;;;;;;;;;5002238;28;20589;-72
2022/06/24 01:03:14;;;;;;;20.50;13.60;;;;;;;;;;4993718;28;20235;-73
2022/06/24 01:05:41;;;;;;;20.73;13.10;;;;;;;;;;4992572;28;20576;-72
2022/06/24 01:08:09;;;;;;;17.03;10.57;;;;;;;;;;4986394;28;20239;-72
2022/06/24 01:10:36;;;;;;;17.37;11.13;;;;;;;;;;5001334;28;20223;-72
2022/06/24 01:13:02;;;;;;;16.43;10.20;;;;;;;;;;4867419;28;3404715;-73
2022/06/24 01:15:29;;;;;;;15.27;11.20;;;;;;;;;;5004384;28;20223;-72
2022/06/24 01:17:55;;;;;;;15.07;10.73;;;;;;;;;;4992474;28;20230;-72
2022/06/24 01:20:22;;;;;;;15.53;9.70;;;;;;;;;;4983374;28;20235;-73
2022/06/24 01:22:49;;;;;;;14.63;10.47;;;;;;;;;;4983697;28;20330;-72
2022/06/24 01:25:15;;;;;;;18.13;12.37;;;;;;;;;;4999777;28;20223;-73
2022/06/24 01:27:42;;;;;;;13.10;10.00;;;;;;;;;;4985004;28;20304;-72
2022/06/24 01:30:10;;;;;;;13.77;10.60;;;;;;;;;;4982823;28;20947;-73
2022/06/24 01:32:36;;;;;;;14.50;10.53;;;;;;;;;;4978324;28;20263;-73
2022/06/24 01:35:10;;;;;;;14.23;9.67;;;;;;;;;;4982879;28;20392;-72
2022/06/24 01:37:37;;;;;;;13.30;9.77;;;;;;;;;;4883480;28;3397553;-72
2022/06/24 01:40:04;;;;;;;17.27;11.93;;;;;;;;;;4985982;28;20597;-73
2022/06/24 01:42:31;;;;;;;15.73;11.50;;;;;;;;;;4984178;28;20226;-72
2022/06/24 01:44:58;;;;;;;17.90;11.67;;;;;;;;;;4982156;28;20242;-73
2022/06/24 01:47:25;;;;;;;18.70;12.43;;;;;;;;;;4984857;28;20227;-72
2022/06/24 01:49:51;;;;;;;19.57;13.37;;;;;;;;;;4984699;28;20310;-72
2022/06/24 01:52:18;;;;;;;21.20;15.03;;;;;;;;;;4928362;28;20231;-72
2022/06/24 01:54:45;;;;;;;21.83;13.00;;;;;;;;;;5000636;28;20248;-72
2022/06/24 01:57:11;;;;;;;20.23;13.90;;;;;;;;;;5001676;28;20567;-72
2022/06/24 01:59:38;;;;;;;19.67;13.70;;;;;;;;;;4983133;28;20254;-72
2022/06/24 02:02:04;;;;;;;20.10;13.60;;;;;;;;;;4982301;28;20273;-73
2022/06/24 02:04:31;;;;;;;20.40;13.60;;;;;;;;;;4984248;28;20276;-72
2022/06/24 02:06:58;;;;;;;21.17;14.80;;;;;;;;;;4988542;28;20698;-72
2022/06/24 02:09:24;;;;;;;19.42;13.75;;;;;;;;;;4878819;28;3399723;-73
2022/06/24 02:14:37;;;;;;;23.10;15.13;;;;;;;;;;4981998;28;20687;-72
2022/06/24 02:17:10;;;;;;;21.63;14.80;;;;;;;;;;4995847;28;20235;-71
2022/06/24 02:19:37;;;;;;;25.80;18.57;;;;;;;;;;4871110;28;3314863;-71
2022/06/24 02:22:04;;;;;;;31.43;18.33;;;;;;;;;;4981709;28;20273;-72
2022/06/24 02:24:30;;;;;;;25.87;15.50;;;;;;;;;;5001434;28;20255;-72
2022/06/24 02:26:57;;;;;;;24.37;15.77;;;;;;;;;;4999243;28;20234;-72
2022/06/24 02:29:23;;;;;;;26.17;16.67;;;;;;;;;;4982056;28;20227;-72
2022/06/24 02:31:50;;;;;;;26.37;15.87;;;;;;;;;;4860194;28;3316714;-72
2022/06/24 02:34:17;;;;;;;29.07;18.83;;;;;;;;;;4993912;28;20725;-71
2022/06/24 02:36:44;;;;;;;25.20;16.30;;;;;;;;;;4984240;28;20241;-71
2022/06/24 02:39:12;;;;;;;26.73;16.87;;;;;;;;;;4999180;28;20238;-72
2022/06/24 02:41:39;;;;;;;25.57;17.77;;;;;;;;;;5001697;28;20266;-72
2022/06/24 02:44:05;;;;;;;30.57;18.93;;;;;;;;;;4884840;28;3314366;-72
2022/06/24 02:46:32;;;;;;;28.63;18.73;;;;;;;;;;4999583;28;20231;-71
2022/06/24 02:48:59;;;;;;;32.67;19.52;;;;;;;;;;4886364;28;3313599;-72
2022/06/24 02:51:26;;;;;;;30.83;18.80;;;;;;;;;;4992789;28;20231;-71
2022/06/24 02:53:52;;;;;;;30.40;18.73;;;;;;;;;;5000320;28;20227;-71
2022/06/24 02:56:19;;;;;;;30.80;18.87;;;;;;;;;;4975065;28;20239;-72
2022/06/24 02:58:46;;;;;;;28.57;17.90;;;;;;;;;;4966185;28;20223;-72
2022/06/24 03:01:13;;;;;;;25.87;16.97;;;;;;;;;;4984086;28;20682;-71
2022/06/24 03:03:39;;;;;;;30.47;19.07;;;;;;;;;;4980555;28;20225;-71
2022/06/24 03:06:07;;;;;;;30.23;18.60;;;;;;;;;;4984184;28;20254;-71
2022/06/24 03:08:33;;;;;;;27.53;17.43;;;;;;;;;;4961382;28;33553;-71
2022/06/24 03:11:00;;;;;;;26.57;18.33;;;;;;;;;;4993723;28;20695;-70
2022/06/24 03:13:28;;;;;;;28.67;18.70;;;;;;;;;;4685886;28;3310970;-71
2022/06/24 03:15:55;;;;;;;30.53;18.93;;;;;;;;;;4896681;28;20235;-71
2022/06/24 03:18:23;;;;;;;29.13;18.80;;;;;;;;;;4972530;28;24330;-74
2022/06/24 03:20:51;;;;;;;27.13;17.70;;;;;;;;;;4976253;28;20224;-69
2022/06/24 03:23:18;;;;;;;31.10;18.33;;;;;;;;;;4873592;28;3307380;-71
2022/06/24 03:25:45;;;;;;;30.45;19.15;;;;;;;;;;4716196;28;3314025;-68
2022/06/24 03:28:12;;;;;;;31.07;19.33;;;;;;;;;;4987109;28;20231;-69
2022/06/24 03:30:56;;;;;;;26.37;17.20;;;;;;;;;;4973153;28;20255;-71
2022/06/24 03:33:23;;;;;;;25.63;15.23;;;;;;;;;;4978420;28;20246;-72
2022/06/24 03:36:08;;;;;;;26.73;14.90;;;;;;;;;;4977478;28;20582;-69
2022/06/24 03:38:34;;;;;;;24.07;14.73;;;;;;;;;;4883236;28;3219314;-70
2022/06/24 03:41:01;;;;;;;25.33;15.93;;;;;;;;;;4993273;28;26918;-68
2022/06/24 03:43:28;;;;;;;32.10;17.13;;;;;;;;;;4974369;28;24796;-68
2022/06/24 03:45:59;;;;;;;24.20;14.57;;;;;;;;;;4861343;28;3220214;-71
2022/06/24 03:48:27;;;;;;;25.70;15.83;;;;;;;;;;4988562;28;20322;-68
2022/06/24 03:50:54;;;;;;;20.00;13.87;;;;;;;;;;4994088;28;20293;-68
2022/06/24 03:53:41;;;;;;;19.43;13.47;;;;;;;;;;4955546;28;3136638;-72
2022/06/24 03:56:11;;;;;;;21.73;14.37;;;;;;;;;;4944526;28;23917;-68
2022/06/24 03:58:37;;;;;;;21.87;13.80;;;;;;;;;;4954862;28;25401;-68
2022/06/24 04:01:04;;;;;;;22.83;16.00;;;;;;;;;;4723734;28;3149063;-69
2022/06/24 04:03:31;;;;;;;31.60;17.13;;;;;;;;;;4713152;28;3142833;-68
2022/06/24 04:05:58;;;;;;;30.67;18.03;;;;;;;;;;4836349;28;3144918;-68
2022/06/24 04:08:24;;;;;;;28.03;17.40;;;;;;;;;;4977249;28;20254;-68
2022/06/24 04:10:51;;;;;;;23.53;13.37;;;;;;;;;;4746543;28;3145267;-68
2022/06/24 04:13:18;;;;;;;22.93;13.67;;;;;;;;;;4887660;28;3137118;-68
2022/06/24 04:15:51;;;;;;;22.77;13.70;;;;;;;;;;4966119;28;25542;-68
2022/06/24 04:18:17;;;;;;;26.60;14.65;;;;;;;;;;4764466;28;3148960;-68
2022/06/24 04:20:44;;;;;;;28.33;13.70;;;;;;;;;;4868229;28;3140951;-69
2022/06/24 04:23:11;;;;;;;25.17;13.47;;;;;;;;;;4867187;28;3144433;-69
2022/06/24 04:25:38;;;;;;;25.03;13.13;;;;;;;;;;4995541;28;20330;-69
2022/06/24 04:28:05;;;;;;;24.43;13.43;;;;;;;;;;4760247;28;3142490;-68
2022/06/24 04:30:32;;;;;;;27.07;13.60;;;;;;;;;;4996073;28;20258;-68
2022/06/24 04:32:59;;;;;;;21.70;13.03;;;;;;;;;;4975722;28;20258;-68
2022/06/24 04:35:26;;;;;;;19.93;13.47;;;;;;;;;;4957126;28;24390;-69
2022/06/24 04:37:53;;;;;;;29.43;13.97;;;;;;;;;;4974242;28;20235;-69
2022/06/24 04:40:19;;;;;;;23.57;13.87;;;;;;;;;;4970643;28;38267;-67
2022/06/24 04:42:47;;;;;;;21.43;13.80;;;;;;;;;;4986587;28;28497;-69
2022/06/24 04:45:14;;;;;;;21.97;12.23;;;;;;;;;;4979130;28;20227;-68
2022/06/24 04:47:41;;;;;;;22.83;13.03;;;;;;;;;;4962798;28;20594;-68
2022/06/24 04:50:07;;;;;;;24.73;13.50;;;;;;;;;;4632073;28;3145185;-68
2022/06/24 04:52:34;;;;;;;20.73;13.37;;;;;;;;;;4955506;28;20652;-68
2022/06/24 04:55:01;;;;;;;26.90;14.13;;;;;;;;;;4995307;28;20247;-68
2022/06/24 04:57:28;;;;;;;22.67;14.87;;;;;;;;;;4993842;28;20879;-68
2022/06/24 05:00:12;;;;;;;26.20;16.23;;;;;;;;;;4995833;28;21777;-68
2022/06/24 05:02:41;;;;;;;24.10;14.97;;;;;;;;;;4977410;28;20235;-67
2022/06/24 05:05:11;;;;;;;22.63;14.50;;;;;;;;;;4994032;28;20227;-68
2022/06/24 05:07:38;;;;;;;19.40;14.37;;;;;;;;;;4973179;28;20219;-67
2022/06/24 05:10:05;;;;;;;20.43;13.20;;;;;;;;;;4996599;28;20235;-67
2022/06/24 05:12:32;;;;;;;22.63;14.20;;;;;;;;;;4990070;28;20242;-67
2022/06/24 05:14:59;;;;;;;18.33;13.33;;;;;;;;;;4869245;28;3061388;-68
2022/06/24 05:17:26;;;;;;;18.70;12.23;;;;;;;;;;4972021;28;20235;-67
2022/06/24 05:19:53;;;;;;;12.37;11.07;;;;;;;;;;4868136;28;3049782;-68
2022/06/24 05:22:20;;;;;;;18.77;11.70;;;;;;;;;;4979791;28;20680;-67
2022/06/24 05:24:49;;;;;;;18.77;11.07;;;;;;;;;;4920725;28;20317;-73
2022/06/24 05:27:17;;;;;;;16.07;10.87;;;;;;;;;;4926012;28;39916;-68
2022/06/24 05:29:44;;;;;;;13.07;8.57;;;;;;;;;;4954661;28;20235;-69
2022/06/24 05:32:10;;;;;;;10.07;8.17;;;;;;;;;;4887311;28;3049174;-71
2022/06/24 05:34:37;;;;;;;13.27;8.73;;;;;;;;;;4921674;28;32222;-68
2022/06/24 05:37:04;;;;;;;12.97;8.13;;;;;;;;;;4992409;28;23672;-71
2022/06/24 05:39:31;;;;;;;9.85;8.20;;;;;;;;;;4871056;28;3048118;-71
2022/06/24 05:41:57;;;;;;;13.73;7.93;;;;;;;;;;4947534;28;20237;-69
2022/06/24 05:44:24;;;;;;;11.30;8.10;;;;;;;;;;4908788;28;221396;-70
2022/06/24 05:46:53;;;;;;;10.60;7.33;;;;;;;;;;4921444;28;216634;-70
2022/06/24 05:49:19;;;;;;;10.43;6.17;;;;;;;;;;4930701;28;215497;-70
2022/06/24 05:51:46;;;;;;;9.20;5.97;;;;;;;;;;4950538;28;665844;-73
2022/06/24 05:56:59;;;;;;;6.50;5.60;;;;;;;;;;4968190;28;20227;-74
2022/06/24 05:59:25;;;;;;;7.30;5.20;;;;;;;;;;4936935;28;255329;-71
2022/06/24 06:01:52;;;;;;;7.57;5.37;;;;;;;;;;4947063;28;236126;-69
2022/06/24 06:04:19;;;;;;;8.33;5.73;;;;;;;;;;4993603;28;21464;-69
2022/06/24 06:06:47;;;;;;;9.50;5.60;;;;;;;;;;4950319;28;221158;-69
2022/06/24 06:09:14;;;;;;;6.60;5.03;;;;;;;;;;4981459;28;234505;-69
2022/06/24 06:11:41;;;;;;;8.73;5.50;;;;;;;;;;4984827;28;215254;-67
2022/06/24 06:14:08;;;;;;;8.73;5.37;;;;;;;;;;4989680;28;20235;-67
2022/06/24 06:16:34;;;;;;;8.20;4.90;;;;;;;;;;4991301;28;21255;-66
2022/06/24 06:19:01;;;;;;;5.03;4.53;;;;;;;;;;4972588;28;22472;-67
2022/06/24 06:21:28;;;;;;;7.40;4.37;;;;;;;;;;4994089;28;20223;-68
2022/06/24 06:23:54;;;;;;;7.37;4.23;;;;;;;;;;4973809;28;20227;-68
2022/06/24 06:26:21;;;;;;;6.80;4.10;;;;;;;;;;4977027;28;20246;-67
2022/06/24 06:28:48;;;;;;;6.20;4.23;;;;;;;;;;4992327;28;20765;-68
2022/06/24 06:31:32;;;;;;;7.50;4.50;;;;;;;;;;4991191;28;20578;-67
2022/06/24 06:33:59;;;;;;;5.30;3.67;;;;;;;;;;4991719;28;23465;-68
2022/06/24 06:36:43;;;;;;;5.77;3.13;;;;;;;;;;4992228;28;20675;-67
2022/06/24 06:39:10;;;;;;;6.33;3.30;;;;;;;;;;4981529;28;20228;-67
2022/06/24 06:41:54;;;;;;;9.60;3.23;;;;;;;;;;4998963;28;21086;-69
2022/06/24 06:44:21;;;;;;;8.53;3.53;;;;;;;;;;5002945;28;20636;-68
2022/06/24 06:46:48;;;;;;;4.90;3.57;;;;;;;;;;4984755;28;20560;-68
2022/06/24 06:49:15;;;;;;;5.43;3.77;;;;;;;;;;4973661;28;20773;-68
2022/06/24 06:51:41;;;;;;;6.00;4.40;;;;;;;;;;4984236;28;20730;-68
2022/06/24 06:54:08;;;;;;;4.70;4.27;;;;;;;;;;4986922;28;216871;-68
2022/06/24 06:56:35;;;;;;;6.07;4.40;;;;;;;;;;4944564;28;20286;-68
2022/06/24 06:59:01;;;;;;;4.53;4.10;;;;;;;;;;4974047;28;20266;-67
2022/06/24 07:01:28;;;;;;;6.80;4.43;;;;;;;;;;5002996;28;20253;-67
2022/06/24 07:03:55;;;;;;;6.37;4.27;;;;;;;;;;5005326;28;20251;-67
2022/06/24 07:06:23;;;;;;;4.10;3.70;;;;;;;;;;5010629;28;20318;-68
2022/06/24 07:08:49;;;;;;;7.50;3.80;;;;;;;;;;5009584;28;20234;-69
2022/06/24 07:11:16;;;;;;;5.87;4.00;;;;;;;;;;4988788;28;22186;-68
2022/06/24 07:13:43;;;;;;;3.77;3.37;;;;;;;;;;4992482;28;20235;-67
2022/06/24 07:16:10;;;;;;;4.43;3.07;;;;;;;;;;4992232;28;20251;-68
2022/06/24 07:18:36;;;;;;;6.33;3.20;;;;;;;;;;4995354;28;23428;-69
2022/06/24 07:21:04;;;;;;;4.57;2.90;;;;;;;;;;4984314;28;221397;-68
2022/06/24 07:23:32;;;;;;;3.47;2.87;;;;;;;;;;4974015;28;21677;-68
2022/06/24 07:25:58;;;;;;;3.97;2.80;;;;;;;;;;4966269;28;20247;-68
2022/06/24 07:28:25;;;;;;;4.30;2.90;;;;;;;;;;4986418;28;213627;-68
2022/06/24 07:30:52;;;;;;;3.07;2.70;;;;;;;;;;4997125;28;20641;-68
2022/06/24 07:33:19;;;;;;;4.20;2.73;;;;;;;;;;4990955;28;23836;-69
2022/06/24 07:35:47;;;;;;;3.97;2.70;;;;;;;;;;4977752;28;20249;-69
2022/06/24 07:38:17;;;;;;;5.63;2.70;;;;;;;;;;4973741;28;37162;-68
2022/06/24 07:40:44;;;;;;;5.10;3.10;;;;;;;;;;4974955;28;20242;-69
2022/06/24 07:43:11;;;;;;;8.60;3.70;;;;;;;;;;4975122;28;20583;-68
2022/06/24 07:45:38;;;;;;;6.27;2.97;;;;;;;;;;4996795;28;20231;-68
2022/06/24 07:48:04;;;;;;;4.87;2.90;;;;;;;;;;4971028;28;242394;-69
2022/06/24 07:50:31;;;;;;;4.97;3.00;;;;;;;;;;4996757;28;20289;-68
2022/06/24 07:52:58;;;;;;;4.37;2.73;;;;;;;;;;4986665;28;224049;-68
2022/06/24 07:58:10;;;;;;;5.40;2.90;;;;;;;;;;4989953;28;218891;-68
2022/06/24 08:00:37;;;;;;;6.27;2.83;;;;;;;;;;4974301;28;27536;-69
2022/06/24 08:03:05;;;;;;;4.83;2.60;;;;;;;;;;4980235;28;20231;-67
2022/06/24 08:05:32;;;;;;;5.70;3.33;;;;;;;;;;4977496;28;20234;-67
2022/06/24 08:07:59;;;;;;;4.20;3.10;;;;;;;;;;4993840;28;20241;-68
2022/06/24 08:10:25;;;;;;;5.80;3.23;;;;;;;;;;4995595;28;20894;-68
2022/06/24 08:12:52;;;;;;;4.20;2.93;;;;;;;;;;4992855;28;21004;-67
2022/06/24 08:15:19;;;;;;;4.97;3.40;;;;;;;;;;4993064;28;23703;-68
2022/06/24 08:17:48;;;;;;;5.37;3.27;;;;;;;;;;4993478;28;20228;-67
2022/06/24 08:20:15;;;;;;;6.40;3.30;;;;;;;;;;4974765;28;20227;-68
2022/06/24 08:22:41;;;;;;;6.17;3.00;;;;;;;;;;4992700;28;20227;-69
2022/06/24 08:25:08;;;;;;;4.00;3.30;;;;;;;;;;4958612;28;38589;-70
2022/06/24 08:27:50;;;;;;;5.63;3.00;;;;;;;;;;4980384;28;28759;-69
2022/06/24 08:30:18;;;;;;;4.60;2.93;;;;;;;;;;4935950;28;214511;-70
2022/06/24 08:32:45;;;;;;;5.00;3.20;;;;;;;;;;4941217;28;20229;-70
2022/06/24 08:35:11;;;;;;;5.57;3.50;;;;;;;;;;4966858;28;217777;-69
2022/06/24 08:37:55;;;;;;;4.90;3.20;;;;;;;;;;4943774;28;24506;-65
2022/06/24 08:40:22;;;;;;;7.60;3.10;;;;;;;;;;4960035;28;20324;-66
2022/06/24 08:42:52;;;;;;;6.53;3.30;;;;;;;;;;4990616;28;20579;-67
2022/06/24 08:45:19;;;;;;;4.97;3.43;;;;;;;;;;4974430;28;20243;-67
2022/06/24 08:47:47;;;;;;;6.00;2.97;;;;;;;;;;4975261;28;20749;-70
2022/06/24 08:50:13;;;;;;;6.60;2.83;;;;;;;;;;4954611;28;216223;-69
2022/06/24 08:52:40;;;;;;;4.77;3.10;;;;;;;;;;4985584;28;20572;-68
2022/06/24 08:55:15;;;;;;;3.93;2.63;;;;;;;;;;4981098;28;220582;-67
2022/06/24 08:57:42;;;;;;;5.83;2.93;;;;;;;;;;4989880;28;20242;-67
2022/06/24 09:00:09;;;;;;;5.90;2.50;;;;;;;;;;4986802;28;20236;-66
2022/06/24 09:02:35;;;;;;;4.33;2.53;;;;;;;;;;4991389;28;20238;-68
2022/06/24 09:05:09;;;;;;;4.13;2.60;;;;;;;;;;4972498;28;30994;-68
2022/06/24 09:07:36;;;;;;;4.50;2.40;;;;;;;;;;4986541;28;20235;-67
2022/06/24 09:10:04;;;;;;;3.47;2.50;;;;;;;;;;4977631;28;221261;-68
2022/06/24 09:12:36;;;;;;;3.50;2.70;;;;;;;;;;4973077;28;20236;-68
2022/06/24 09:15:03;;;;;;;7.03;2.80;;;;;;;;;;4991158;28;20223;-68
2022/06/24 09:17:30;;;;;;;4.93;2.40;;;;;;;;;;4982077;28;218005;-68
2022/06/24 09:20:04;;;;;;;4.63;2.67;;;;;;;;;;4970819;28;32794;-67
2022/06/24 09:23:00;;;;;;;4.33;3.00;;;;;;;;;;4982693;28;215924;-68
2022/06/24 09:25:27;;;;;;;3.50;2.60;;;;;;;;;;4985202;28;20239;-68
2022/06/24 09:27:55;;;;;;;3.43;2.67;;;;;;;;;;4941856;28;20939;-68
2022/06/24 09:30:21;;;;;;;4.13;2.70;;;;;;;;;;4987345;28;20365;-68
2022/06/24 09:32:51;;;;;;;3.33;2.47;;;;;;;;;;4968885;28;22610;-67
2022/06/24 09:35:38;;;;;;;7.43;2.50;;;;;;;;;;4991700;28;20231;-67
2022/06/24 09:38:05;;;;;;;5.33;2.97;;;;;;;;;;4972220;28;213866;-68
2022/06/24 09:40:34;;;;;;;4.67;3.00;;;;;;;;;;4895208;28;20722;-68
2022/06/24 09:43:04;;;;;;;5.90;2.83;;;;;;;;;;4935837;28;20235;-68
2022/06/24 09:45:44;;;;;;;3.27;2.40;;;;;;;;;;4922300;28;20241;-69
2022/06/24 09:48:32;;;;;;;6.20;2.70;;;;;;;;;;4864705;28;20416;-69
2022/06/24 09:50:59;;;;;;;4.13;2.60;;;;;;;;;;4955624;28;231631;-68
2022/06/24 09:53:45;;;;;;;3.17;2.60;;;;;;;;;;4978975;28;20263;-68
2022/06/24 09:56:13;;;;;;;5.83;2.60;;;;;;;;;;4969490;28;220578;-66
2022/06/24 09:58:42;;;;;;;3.27;2.50;;;;;;;;;;4991559;28;20599;-66
2022/06/24 10:01:09;;;;;;;4.03;2.70;;;;;;;;;;4991046;28;20228;-67
2022/06/24 10:03:37;;;;;;;5.43;3.00;;;;;;;;;;4994861;28;20269;-66
2022/06/24 10:06:05;;;;;;;4.17;2.83;;;;;;;;;;4990963;28;20234;-66
2022/06/24 10:08:32;;;;;;;5.33;2.90;;;;;;;;;;4992646;28;21380;-66
2022/06/24 10:11:19;;;;;;;5.70;2.70;;;;;;;;;;4992812;28;20235;-65
2022/06/24 10:13:46;;;;;;;4.83;2.40;;;;;;;;;;4986237;28;20234;-66
2022/06/24 10:16:15;;;;;;;3.57;2.40;;;;;;;;;;4977232;28;20326;-66
2022/06/24 10:18:43;;;;;;;4.53;2.40;;;;;;;;;;4992940;28;20246;-66
2022/06/24 10:21:10;;;;;;;4.80;3.03;;;;;;;;;;4990225;28;20267;-66
2022/06/24 10:23:38;;;;;;;5.23;2.70;;;;;;;;;;4991795;28;27770;-65
2022/06/24 10:26:08;;;;;;;4.77;2.53;;;;;;;;;;4990824;28;20223;-65
2022/06/24 10:28:54;;;;;;;6.53;2.77;;;;;;;;;;4988130;28;23181;-65
2022/06/24 10:31:20;;;;;;;4.20;2.30;;;;;;;;;;4972833;28;20817;-64
2022/06/24 10:33:48;;;;;;;6.27;3.00;;;;;;;;;;4993254;28;20243;-64
2022/06/24 10:36:28;;;;;;;6.80;2.80;;;;;;;;;;4987790;28;20233;-64
2022/06/24 10:39:15;;;;;;;4.70;2.50;;;;;;;;;;4967825;28;20247;-64
2022/06/24 10:41:42;;;;;;;3.60;2.43;;;;;;;;;;5001761;28;20304;-64
2022/06/24 10:44:24;;;;;;;3.03;2.20;;;;;;;;;;4991903;28;20257;-65
2022/06/24 10:47:06;;;;;;;4.63;2.40;;;;;;;;;;5000925;28;20233;-64
2022/06/24 10:49:50;;;;;;;4.33;2.53;;;;;;;;;;4999486;28;20256;-65
2022/06/24 10:52:33;;;;;;;4.73;2.27;;;;;;;;;;5004830;28;20231;-64
2022/06/24 10:55:28;;;;;;;3.80;2.20;;;;;;;;;;4996168;28;20485;-66
2022/06/24 10:58:08;;;;;;;3.03;2.57;;;;;;;;;;4997046;28;20232;-64
2022/06/24 11:00:51;;;;;;;5.20;2.53;;;;;;;;;;5000670;28;20812;-65
2022/06/24 11:03:23;;;;;;;4.10;2.53;;;;;;;;;;5003153;28;20695;-64
2022/06/24 11:06:08;;;;;;;5.43;2.57;;;;;;;;;;4963625;28;20230;-67
2022/06/24 11:08:35;;;;;;;5.70;2.60;;;;;;;;;;4981528;28;20897;-63
2022/06/24 11:11:04;;;;;;;5.47;2.83;;;;;;;;;;4980606;28;23882;-63
2022/06/24 11:13:31;;;;;;;3.90;2.60;;;;;;;;;;4994860;28;20234;-66
2022/06/24 11:15:58;;;;;;;6.60;2.67;;;;;;;;;;4994552;28;20765;-65
2022/06/24 11:18:26;;;;;;;3.60;2.40;;;;;;;;;;4975207;28;20440;-66
2022/06/24 11:21:19;;;;;;;4.13;2.07;;;;;;;;;;4996240;28;20228;-65
2022/06/24 11:23:46;;;;;;;3.93;2.40;;;;;;;;;;4992900;28;20225;-65
2022/06/24 11:26:16;;;;;;;5.77;2.43;;;;;;;;;;4997715;28;20230;-65
2022/06/24 11:28:43;;;;;;;4.90;2.43;;;;;;;;;;4989977;28;20748;-64
2022/06/24 11:31:20;;;;;;;3.27;2.30;;;;;;;;;;4996256;28;20228;-64
2022/06/24 11:33:48;;;;;;;4.57;2.10;;;;;;;;;;4992968;28;20246;-64
2022/06/24 11:36:14;;;;;;;3.93;1.90;;;;;;;;;;5010384;28;20250;-65
2022/06/24 11:38:51;;;;;;;4.27;2.30;;;;;;;;;;5004425;28;20231;-65
2022/06/24 11:41:36;;;;;;;4.10;2.10;;;;;;;;;;4986930;28;20719;-65
2022/06/24 11:44:32;;;;;;;2.47;1.80;;;;;;;;;;5005019;28;20223;-65
2022/06/24 11:46:59;;;;;;;2.80;1.93;;;;;;;;;;4992009;28;20644;-64
2022/06/24 11:49:25;;;;;;;3.20;2.20;;;;;;;;;;4994413;28;213984;-66
2022/06/24 11:51:52;;;;;;;2.10;1.90;;;;;;;;;;5003706;28;20567;-66
2022/06/24 11:54:19;;;;;;;2.47;1.90;;;;;;;;;;4968722;28;20781;-66
2022/06/24 11:56:46;;;;;;;4.20;1.93;;;;;;;;;;4970383;28;20235;-66
2022/06/24 11:59:12;;;;;;;4.87;2.90;;;;;;;;;;4988925;28;20695;-66
2022/06/24 12:01:45;;;;;;;3.30;1.67;;;;;;;;;;5003588;28;20734;-66
2022/06/24 12:04:11;;;;;;;2.47;2.07;;;;;;;;;;4988363;28;20238;-66
2022/06/24 12:06:39;;;;;;;4.23;2.13;;;;;;;;;;5002970;28;20230;-66
2022/06/24 12:09:23;;;;;;;3.83;2.10;;;;;;;;;;5005606;28;20434;-66
2022/06/24 12:11:50;;;;;;;7.03;2.20;;;;;;;;;;5004094;28;20245;-66
2022/06/24 12:14:18;;;;;;;2.13;1.90;;;;;;;;;;5005526;28;20242;-66
2022/06/24 12:16:56;;;;;;;7.10;2.10;;;;;;;;;;5003647;28;21031;-66
2022/06/24 12:19:23;;;;;;;2.17;1.90;;;;;;;;;;4974246;28;20688;-66
2022/06/24 12:21:50;;;;;;;4.10;1.87;;;;;;;;;;4987412;28;20227;-67
2022/06/24 12:24:23;;;;;;;3.60;1.80;;;;;;;;;;4989628;28;20567;-66
2022/06/24 12:26:56;;;;;;;3.13;1.80;;;;;;;;;;5003879;28;20230;-67
2022/06/24 12:29:33;;;;;;;3.73;1.97;;;;;;;;;;5003071;28;20238;-66
2022/06/24 12:32:01;;;;;;;3.60;2.17;;;;;;;;;;4986330;28;20270;-66
2022/06/24 12:34:34;;;;;;;4.37;2.00;;;;;;;;;;5004966;28;23924;-66
2022/06/24 12:37:01;;;;;;;4.30;2.47;;;;;;;;;;4986537;28;20237;-66
2022/06/24 12:39:41;;;;;;;5.43;1.80;;;;;;;;;;4987024;28;22131;-67
2022/06/24 12:42:25;;;;;;;3.87;2.10;;;;;;;;;;4993402;28;20649;-66
2022/06/24 12:44:53;;;;;;;2.80;1.90;;;;;;;;;;4985368;28;20249;-67
2022/06/24 12:53:12;;;;;;;3.67;2.00;;;;;;;;;;4980744;28;20236;-66
2022/06/24 12:55:39;;;;;;;3.03;2.00;;;;;;;;;;5001984;28;20246;-67
2022/06/24 12:58:07;;;;;;;3.17;2.00;;;;;;;;;;5000952;28;20245;-66
2022/06/24 13:00:34;;;;;;;5.97;2.20;;;;;;;;;;5002622;28;21281;-67
2022/06/24 13:03:02;;;;;;;2.80;1.70;;;;;;;;;;5004535;28;20250;-67
2022/06/24 13:05:29;;;;;;;3.43;1.70;;;;;;;;;;5003313;28;20239;-67
2022/06/24 13:07:56;;;;;;;3.77;1.80;;;;;;;;;;5004738;28;20629;-66
2022/06/24 13:10:23;;;;;;;3.60;1.93;;;;;;;;;;5002642;28;20227;-67
2022/06/24 13:12:50;;;;;;;2.90;1.63;;;;;;;;;;5003845;28;20227;-67
2022/06/24 13:15:18;;;;;;;4.10;2.13;;;;;;;;;;4973276;28;25427;-66
2022/06/24 13:17:45;;;;;;;5.10;1.80;;;;;;;;;;4972119;28;20311;-66
2022/06/24 13:20:13;;;;;;;3.17;1.90;;;;;;;;;;4988740;28;20239;-66
2022/06/24 13:22:39;;;;;;;2.37;1.63;;;;;;;;;;5002098;28;20225;-66
2022/06/24 13:25:06;;;;;;;3.97;1.70;;;;;;;;;;5002935;28;35851;-67
2022/06/24 13:27:33;;;;;;;6.20;2.00;;;;;;;;;;4986302;28;20243;-67
2022/06/24 13:30:01;;;;;;;6.20;1.90;;;;;;;;;;4996318;28;20243;-65
2022/06/24 13:32:28;;;;;;;5.00;2.00;;;;;;;;;;4997730;28;20241;-67
2022/06/24 13:34:54;;;;;;;4.37;1.83;;;;;;;;;;4986608;28;20236;-66
2022/06/24 13:37:38;;;;;;;4.57;1.90;;;;;;;;;;4986851;28;20226;-66
2022/06/24 13:40:05;;;;;;;6.03;2.10;;;;;;;;;;4969553;28;20776;-65
2022/06/24 13:42:32;;;;;;;2.07;1.70;;;;;;;;;;4988768;28;20611;-68
2022/06/24 13:44:59;;;;;;;5.50;2.20;;;;;;;;;;5001702;28;20226;-68
2022/06/24 13:47:25;;;;;;;5.13;1.73;;;;;;;;;;4999417;28;20316;-69
2022/06/24 13:50:10;;;;;;;6.37;2.47;;;;;;;;;;4988950;28;20567;-69
2022/06/24 13:52:37;;;;;;;3.50;1.93;;;;;;;;;;4942711;28;23476;-69
2022/06/24 13:55:04;;;;;;;3.13;2.10;;;;;;;;;;4962090;28;20280;-69
2022/06/24 13:57:31;;;;;;;3.97;1.90;;;;;;;;;;4987515;28;20226;-69
2022/06/24 14:00:01;;;;;;;3.43;2.10;;;;;;;;;;4983489;28;20705;-69
2022/06/24 14:02:45;;;;;;;3.80;2.00;;;;;;;;;;4974146;28;20225;-69
2022/06/24 14:05:13;;;;;;;4.83;2.10;;;;;;;;;;5001601;28;20572;-69
2022/06/24 14:07:39;;;;;;;7.03;2.20;;;;;;;;;;4981200;28;20225;-69
2022/06/24 14:10:06;;;;;;;1.97;1.73;;;;;;;;;;4981768;28;20226;-69
2022/06/24 14:12:51;;;;;;;2.80;2.07;;;;;;;;;;4979023;28;20302;-70
2022/06/24 14:15:19;;;;;;;3.77;2.10;;;;;;;;;;5000954;28;20229;-74
2022/06/24 14:17:45;;;;;;;3.03;1.90;;;;;;;;;;4951763;28;228429;-73
2022/06/24 14:20:16;;;;;;;4.80;2.00;;;;;;;;;;4948933;28;20776;-71
2022/06/24 14:25:29;;;;;;;4.07;2.00;;;;;;;;;;4998131;28;20692;-72
2022/06/24 14:27:56;;;;;;;3.20;2.07;;;;;;;;;;4943714;28;20231;-69
2022/06/24 14:30:23;;;;;;;3.60;2.07;;;;;;;;;;4968216;28;20219;-68
2022/06/24 14:32:50;;;;;;;5.10;2.60;;;;;;;;;;4983941;28;20235;-73
2022/06/24 14:35:16;;;;;;;3.47;2.00;;;;;;;;;;4968134;28;20229;-75
2022/06/24 14:40:31;;;;;;;6.17;2.20;;;;;;;;;;4948508;28;216781;-71
2022/06/24 14:43:16;;;;;;;3.93;2.10;;;;;;;;;;4965103;28;218271;-76
2022/06/24 14:45:43;;;;;;;3.37;2.10;;;;;;;;;;4967701;28;221675;-72
2022/06/24 14:48:12;;;;;;;3.90;2.00;;;;;;;;;;4955260;28;217297;-73
2022/06/24 14:50:39;;;;;;;2.73;2.10;;;;;;;;;;4957074;28;218850;-77
2022/06/24 14:53:06;;;;;;;2.63;2.10;;;;;;;;;;4989681;28;213383;-73
2022/06/24 14:55:33;;;;;;;3.03;2.30;;;;;;;;;;4962612;28;20310;-67
2022/06/24 14:57:59;;;;;;;3.37;2.00;;;;;;;;;;4978227;28;20229;-75
2022/06/24 15:00:26;;;;;;;2.43;2.00;;;;;;;;;;4943336;28;232055;-71
2022/06/24 15:02:53;;;;;;;3.13;2.00;;;;;;;;;;4982832;28;20591;-71